メインページ
METAR-TAF:

METAR-TAF

空港 :

Eastern Slopes Regional Airport

Fryeburg, メイン州, アメリカ合衆国

緯度: 43-59-21N, 経度: 070-57-01W, 海抜: 137m

現時点の気象観測

当レポートは21分前の04:54(UTC)に作成
北東の風 6kt
気温 5°C
湿度 75%
気圧 1016 hPa
視程: 16.1km
高度2000ftの曇り

METAR: KIZG 040454Z AUTO 05006KT 10SM OVC020 05/01 A3001 RMK AO2 SLP165 T00500011 400780050

時間: 01:15 (05:15 UTC)


TAF: 見つかりません

4,000以上の空港の気象観測と天気予報(METAR報とTAF報)

利用可能な観測所は地図上に黄色い丸と赤い丸で示す。

丸の上にカーソルを重ねると観測所名を参照できる。

次にクリックすると気象観測と天気予報を参照できる。

マップの切り替え:黒色「×」印の緑ボタンをクリックして拡大、「-」印の緑ボタンをクリックして縮小、緑色の三角印をクリックして隣りの地図に切り替え


METAR-TAF: